Aeroporto :
LOGIN :

Iscrizione | Disclaimer

   EN    FR    IT 

 










Sommario :    VFR   VFR Marginale   IFR   IFR Intensivo   IFR Molto Intensivo
Visibilità : 
Base nubi : 
>= 8 km
>= 3000ft
5 / 8 km
1000 / 3000 ft
1500m / 5 km
500 / 1000 ft
800 / 1500m
200 / 500 ft
< 800m
< 200 ft
Simboli :   Temporali  Nebbia  Neve Forte  Precipitazioni Forti  Vento > 20 kt
SIGMETs :   Varie  Temporali  Ghiacco  Turbolenza  Onda orograficha  Ceneri Vulcaniche






- Altitudine del aeroporto : 327 ft
- Codice IATA : BHX


EGBB - Birmingham

ULTIMO METAR :
  • 211850Z 10009KT 5000 HZ BKN009 05/03 Q1000

METARs OBSOLETI :
  • 211820Z 10009KT 5000 HZ BKN010 05/03 Q1000
  • 211750Z 10009KT 6000 OVC009 05/03 Q1000
  • 211720Z 10010KT 6000 OVC009 05/03 Q1000
  • 211650Z 10011KT 6000 OVC010 05/03 Q1001
  • 211620Z 09009KT 6000 OVC011 05/03 Q1001

TAF TAF EGBB
Valido dal 21 a 18 ore il 22 a 18 ore UTC


211657Z 2118/2218 10008KT 9000 BKN010
TEMPO 2118/2203 4000 RA BKN003
BECMG 2121/2124 BKN008
PROB30
TEMPO 2203/2209 RA
PROB30
TEMPO 2203/2206 4000 BR BKN003
BECMG 2206/2209 9999 SCT018
TEMPO 2209/2218 4000 RA BKN009
ATIS : +44 121 780 0910



MetMap, La meteo Aeronautica in un colpo d'occhio ! - Copyright ORBIFLY Dicembre 2007 - Disclaimer

ORBIFLY MET'MAP TEAM :

Programmazione e sviluppo : Alexandra Zaïnal
Concezione e sviluppo : Baudouin d'Aumeries
Co-Programmazione e sviluppo : Marc-Olivier Méhu
Supporto tecnico e logistico : Manuel Goepfert
Aiuto per la traduzione : Arnaldo La Scala

Contatto : metmap@orbifly.com




FONTI E CREDITI :

   NOAA